createdAt,value
2022-08-22T00:02:19.602Z,1.10
2022-08-22T00:03:04.186Z,1.48
2022-08-22T00:05:06.205Z,1.45
2022-08-22T00:08:09.158Z,1.23
2022-08-22T00:10:53.827Z,1.30
2022-08-22T00:13:45.354Z,1.15
2022-08-22T00:16:40.412Z,1.80
2022-08-22T00:19:31.771Z,1.10
2022-08-22T00:22:41.983Z,1.27
2022-08-22T00:25:50.039Z,1.40
2022-08-22T00:28:27.953Z,1.05
2022-08-22T00:31:02.713Z,1.60
2022-08-22T00:33:39.038Z,1.15
2022-08-22T00:36:30.816Z,1.05
2022-08-22T00:39:15.861Z,1.75
2022-08-22T00:41:45.117Z,1.13
2022-08-22T00:44:48.973Z,1.00
2022-08-22T00:47:26.252Z,2.08
2022-08-22T00:50:01.459Z,1.13
2022-08-22T00:52:35.542Z,1.20
2022-08-22T00:55:09.689Z,1.13
2022-08-22T00:57:39.134Z,1.48
2022-08-22T01:00:19.014Z,1.30
2022-08-22T01:03:22.250Z,2.00
2022-08-22T01:08:42.363Z,1.00
2022-08-22T01:11:37.327Z,1.15
2022-08-22T01:14:34.516Z,1.35
2022-08-22T01:17:25.979Z,1.48
2022-08-22T01:19:52.779Z,0.80
2022-08-22T01:22:19.244Z,1.17
2022-08-22T01:25:22.480Z,1.38
2022-08-22T01:28:04.425Z,1.17
2022-08-22T01:30:54.275Z,1.00
2022-08-22T01:33:53.515Z,0.98
2022-08-22T01:36:55.339Z,0.80
2022-08-22T01:39:27.720Z,1.20
2022-08-22T01:42:05.033Z,1.60
2022-08-22T01:44:37.634Z,1.38
2022-08-22T01:49:33.530Z,1.20
2022-08-22T01:52:08.740Z,1.02
2022-08-22T01:54:56.356Z,1.10
2022-08-22T01:57:24.697Z,0.80
2022-08-22T01:59:53.996Z,1.10
2022-08-22T02:02:52.136Z,0.90
2022-08-22T02:05:21.960Z,0.90
2022-08-22T02:07:54.528Z,1.77
2022-08-22T02:13:13.006Z,0.80
2022-08-22T02:15:39.756Z,1.35
2022-08-22T02:18:06.263Z,0.77
2022-08-22T02:21:05.205Z,0.80
2022-08-22T02:23:46.857Z,1.63
2022-08-22T02:26:20.044Z,1.65
2022-08-22T02:28:58.849Z,1.33
2022-08-22T02:31:44.206Z,1.67
2022-08-22T02:34:35.758Z,0.90
2022-08-22T02:37:21.956Z,2.17
2022-08-22T02:40:27.361Z,1.23
2022-08-22T02:42:59.615Z,1.60
2022-08-22T02:45:43.842Z,1.20
2022-08-22T02:48:27.705Z,1.38
2022-08-22T02:50:57.835Z,1.00
2022-08-22T02:53:37.172Z,0.95
2022-08-22T02:56:13.100Z,1.10
2022-08-22T02:58:50.247Z,1.10
2022-08-22T03:01:22.249Z,2.25
2022-08-22T03:03:49.888Z,2.15
2022-08-22T03:06:36.422Z,1.35
2022-08-22T03:09:22.020Z,1.33
2022-08-22T03:12:15.481Z,1.67
2022-08-22T03:14:56.067Z,1.30
2022-08-22T03:17:30.543Z,2.13
2022-08-22T03:20:13.453Z,1.33
2022-08-22T03:22:44.417Z,1.52
2022-08-22T03:25:10.894Z,1.00
2022-08-22T03:27:56.421Z,1.67
2022-08-22T03:30:33.252Z,1.85
2022-08-22T03:33:18.214Z,0.80
2022-08-22T03:35:44.966Z,1.88
2022-08-22T03:38:27.371Z,1.00
2022-08-22T03:40:56.883Z,1.60
2022-08-22T03:43:29.287Z,1.10
2022-08-22T03:46:19.972Z,0.80
2022-08-22T03:49:01.658Z,1.05
2022-08-22T03:51:53.056Z,0.88
2022-08-22T03:54:40.286Z,1.02
2022-08-22T03:57:24.843Z,1.20
2022-08-22T04:00:10.321Z,2.22
2022-08-22T04:02:55.410Z,1.33
2022-08-22T04:05:55.648Z,1.00
2022-08-22T04:08:49.240Z,1.65
2022-08-22T04:11:36.788Z,2.08
2022-08-22T04:14:09.041Z,2.05
2022-08-22T04:17:11.210Z,1.10
2022-08-22T04:19:55.715Z,1.15
2022-08-22T04:22:27.168Z,0.95
2022-08-22T04:25:07.532Z,1.33
2022-08-22T04:28:31.557Z,1.27
2022-08-22T04:31:14.150Z,1.30
2022-08-22T04:34:08.450Z,1.20
2022-08-22T04:36:43.327Z,1.70
2022-08-22T04:39:41.739Z,1.63
2022-08-22T04:42:33.339Z,1.75
2022-08-22T04:45:17.857Z,1.85
2022-08-22T04:48:20.652Z,1.52
2022-08-22T04:50:55.043Z,1.55
2022-08-22T04:53:49.461Z,1.20
2022-08-22T04:56:22.188Z,1.35
2022-08-22T04:58:54.140Z,1.00
2022-08-22T05:01:25.742Z,1.30
2022-08-22T05:04:00.474Z,2.35
2022-08-22T05:06:32.853Z,1.58
2022-08-22T05:09:04.528Z,1.05
2022-08-22T05:11:33.016Z,1.17
2022-08-22T05:14:25.411Z,1.10
2022-08-22T05:16:54.859Z,1.48
2022-08-22T05:19:32.268Z,2.55
2022-08-22T05:21:59.208Z,1.20
2022-08-22T05:24:36.103Z,1.45
2022-08-22T05:27:11.352Z,1.42
2022-08-22T05:29:42.693Z,0.85
2022-08-22T05:32:17.949Z,1.38
2022-08-22T05:34:46.993Z,2.15
2022-08-22T05:37:24.462Z,2.15
2022-08-22T05:39:57.233Z,1.35
2022-08-22T05:42:37.533Z,1.40
2022-08-22T05:45:11.485Z,1.23
2022-08-22T05:47:48.149Z,1.17
2022-08-22T05:50:22.365Z,1.10
2022-08-22T05:52:55.287Z,1.00
2022-08-22T05:55:24.765Z,1.17
2022-08-22T05:58:25.283Z,1.33
2022-08-22T06:01:24.089Z,1.38
2022-08-22T06:03:57.259Z,1.10
2022-08-22T06:06:26.877Z,1.27
2022-08-22T06:09:13.077Z,1.55
2022-08-22T06:12:00.155Z,1.20
2022-08-22T06:14:49.665Z,2.05
2022-08-22T06:17:22.509Z,1.13
2022-08-22T06:19:52.426Z,1.17
2022-08-22T06:22:23.210Z,1.73
2022-08-22T06:24:51.787Z,1.45
2022-08-22T06:27:22.927Z,1.88
2022-08-22T06:30:01.525Z,1.42
2022-08-22T06:32:59.407Z,0.90
2022-08-22T06:35:29.971Z,1.77
2022-08-22T06:38:00.615Z,1.75
2022-08-22T06:40:28.444Z,1.55
2022-08-22T06:42:57.169Z,1.65
2022-08-22T06:45:27.637Z,1.20
2022-08-22T06:48:12.346Z,2.90
2022-08-22T06:50:42.749Z,1.65
2022-08-22T06:53:12.188Z,1.65
2022-08-22T06:55:42.697Z,1.25
2022-08-22T06:58:17.023Z,1.15
2022-08-22T07:00:49.767Z,1.52
2022-08-22T07:03:26.545Z,2.25
2022-08-22T07:05:56.134Z,1.70
2022-08-22T07:08:24.515Z,1.60
2022-08-22T07:11:21.774Z,0.90
2022-08-22T07:13:57.273Z,1.60
2022-08-22T07:16:48.112Z,1.30
2022-08-22T07:19:30.768Z,1.30
2022-08-22T07:21:58.834Z,1.73
2022-08-22T07:24:29.706Z,1.20
2022-08-22T07:26:56.117Z,1.75
2022-08-22T07:29:42.793Z,1.02
2022-08-22T07:32:18.721Z,1.50
2022-08-22T07:35:13.869Z,1.10
2022-08-22T07:37:43.480Z,1.50
2022-08-22T07:40:33.199Z,0.82
2022-08-22T07:43:14.559Z,1.23
2022-08-22T07:45:49.406Z,1.58
2022-08-22T07:48:33.435Z,0.80
2022-08-22T07:51:13.600Z,1.88
2022-08-22T07:54:10.430Z,1.67
2022-08-22T07:56:42.994Z,1.13
2022-08-22T08:01:48.358Z,1.88
2022-08-22T08:04:19.505Z,2.83
2022-08-22T08:06:51.000Z,2.50
2022-08-22T08:09:20.150Z,1.90
2022-08-22T08:11:49.393Z,1.27
2022-08-22T08:14:19.949Z,2.15
2022-08-22T08:16:55.285Z,1.33
2022-08-22T08:19:22.979Z,1.10
2022-08-22T08:21:54.201Z,1.40
2022-08-22T08:24:28.328Z,1.90
2022-08-22T08:27:26.713Z,2.75
2022-08-22T08:29:58.950Z,1.52
2022-08-22T08:32:30.563Z,2.28
2022-08-22T08:34:57.624Z,1.63
2022-08-22T08:37:41.419Z,2.55
2022-08-22T08:40:22.639Z,2.38
2022-08-22T08:43:29.607Z,2.58
2022-08-22T08:46:24.871Z,3.50
2022-08-22T08:49:11.304Z,5.18
2022-08-22T08:52:02.418Z,3.00
2022-08-22T08:54:47.535Z,3.10
2022-08-22T08:57:29.490Z,3.60
2022-08-22T09:00:05.747Z,3.28
2022-08-22T09:02:50.484Z,4.97
2022-08-22T09:05:45.337Z,3.65
2022-08-22T09:08:29.131Z,3.95
2022-08-22T09:11:09.936Z,4.43
2022-08-22T09:13:44.430Z,4.95
2022-08-22T09:18:59.213Z,5.35
2022-08-22T09:21:43.881Z,5.95
2022-08-22T09:24:41.337Z,6.60
2022-08-22T09:27:14.971Z,48.95
2022-08-22T09:29:56.996Z,29.17
2022-08-22T09:32:48.468Z,27.55
2022-08-22T09:35:25.372Z,28.40
2022-08-22T09:38:20.544Z,35.22
2022-08-22T09:40:56.583Z,37.05
2022-08-22T09:43:39.606Z,38.33
2022-08-22T09:46:21.049Z,37.00
2022-08-22T09:48:53.020Z,36.75
2022-08-22T09:51:38.546Z,35.15
2022-08-22T09:54:18.855Z,34.97
2022-08-22T09:57:22.857Z,34.90
2022-08-22T10:00:13.474Z,46.70
2022-08-22T10:02:51.371Z,51.67
2022-08-22T10:05:41.080Z,48.42
2022-08-22T10:08:30.086Z,63.03
2022-08-22T10:11:19.499Z,80.15
2022-08-22T10:14:00.531Z,160.75
2022-08-22T10:16:38.370Z,86.73
2022-08-22T10:19:32.289Z,76.40
2022-08-22T10:22:20.589Z,82.72
2022-08-22T10:24:54.524Z,84.43
2022-08-22T10:27:48.900Z,84.18
2022-08-22T10:30:22.278Z,80.13
2022-08-22T10:33:02.306Z,77.72
2022-08-22T10:35:50.619Z,71.70
2022-08-22T10:38:25.747Z,73.47
2022-08-22T10:40:56.961Z,65.60
2022-08-22T10:43:29.718Z,62.90
2022-08-22T10:46:06.682Z,62.42
2022-08-22T10:48:58.485Z,57.53
2022-08-22T10:51:34.790Z,52.55
2022-08-22T10:54:33.140Z,51.67
2022-08-22T10:57:16.137Z,48.72
2022-08-22T10:59:50.278Z,44.95
2022-08-22T11:02:29.228Z,41.88
2022-08-22T11:05:08.131Z,39.58
2022-08-22T11:07:48.784Z,36.58
2022-08-22T11:10:39.718Z,35.65
2022-08-22T11:13:49.712Z,32.85
2022-08-22T11:16:56.445Z,32.00
2022-08-22T11:19:41.378Z,30.58
2022-08-22T11:22:27.236Z,30.92
2022-08-22T11:27:49.732Z,29.10
2022-08-22T11:30:30.195Z,25.40
2022-08-22T11:33:33.859Z,16.23
2022-08-22T11:36:16.544Z,8.35
2022-08-22T11:39:02.509Z,5.30
2022-08-22T11:41:52.487Z,4.00
2022-08-22T11:44:34.555Z,8.90
2022-08-22T11:47:20.479Z,3.25
2022-08-22T11:50:13.438Z,4.35
2022-08-22T11:52:40.582Z,4.80
2022-08-22T11:55:09.027Z,10.32
2022-08-22T11:57:44.379Z,3.28
2022-08-22T12:00:59.470Z,10.25
2022-08-22T12:03:55.726Z,14.13
2022-08-22T12:06:41.698Z,16.52
2022-08-22T12:09:17.941Z,11.95
2022-08-22T12:12:18.845Z,35.40
2022-08-22T12:15:11.215Z,31.38
2022-08-22T12:18:19.965Z,21.67
2022-08-22T12:21:16.040Z,108.85
2022-08-22T12:23:52.259Z,44.85
2022-08-22T12:26:18.744Z,54.63
2022-08-22T12:29:40.045Z,41.42
2022-08-22T12:33:00.746Z,66.85
2022-08-22T12:35:33.264Z,59.58
2022-08-22T12:38:28.244Z,51.65
2022-08-22T12:40:58.967Z,51.70
2022-08-22T12:43:32.228Z,46.80
2022-08-22T12:46:17.339Z,44.10
2022-08-22T12:49:13.063Z,46.25
2022-08-22T12:51:59.862Z,38.70
2022-08-22T12:54:45.382Z,35.30
2022-08-22T12:57:37.274Z,41.72
2022-08-22T13:00:56.277Z,34.40
2022-08-22T13:03:32.178Z,31.20
2022-08-22T13:06:04.331Z,28.92
2022-08-22T13:08:44.760Z,27.67
2022-08-22T13:11:22.522Z,27.90
2022-08-22T13:13:56.617Z,23.80
2022-08-22T13:16:25.050Z,111.70
2022-08-22T13:19:00.342Z,47.45
2022-08-22T13:21:39.939Z,32.75
2022-08-22T13:24:12.867Z,38.53
2022-08-22T13:26:55.718Z,35.20
2022-08-22T13:29:27.541Z,32.97
2022-08-22T13:32:07.087Z,29.40
2022-08-22T13:34:43.532Z,26.27
2022-08-22T13:37:24.867Z,25.83
2022-08-22T13:39:58.546Z,22.75
2022-08-22T13:42:30.752Z,22.27
2022-08-22T13:45:02.417Z,19.33
2022-08-22T13:47:31.554Z,19.17
2022-08-22T13:50:14.670Z,17.25
2022-08-22T13:52:52.506Z,19.05
2022-08-22T13:55:49.159Z,17.33
2022-08-22T13:58:47.364Z,24.25
2022-08-22T14:01:29.403Z,33.47
2022-08-22T14:03:57.869Z,29.00
2022-08-22T14:06:37.990Z,21.58
2022-08-22T14:09:31.301Z,25.17
2022-08-22T14:12:12.048Z,22.67
2022-08-22T14:14:42.441Z,24.10
2022-08-22T14:17:16.686Z,24.23
2022-08-22T14:19:58.642Z,23.23
2022-08-22T14:22:31.793Z,20.20
2022-08-22T14:25:07.292Z,24.08
2022-08-22T14:27:36.817Z,23.38
2022-08-22T14:35:21.511Z,18.08
2022-08-22T14:38:17.497Z,16.58
2022-08-22T14:40:45.459Z,17.80
2022-08-22T14:43:26.114Z,17.20
2022-08-22T14:46:03.450Z,16.98
2022-08-22T14:48:40.665Z,16.02
2022-08-22T14:51:18.072Z,13.88
2022-08-22T14:53:48.351Z,15.15
2022-08-22T14:56:24.928Z,16.60
2022-08-22T14:59:14.873Z,14.68
2022-08-22T15:02:03.840Z,15.13
2022-08-22T15:04:38.002Z,14.77
2022-08-22T15:07:05.712Z,14.35
2022-08-22T15:09:40.481Z,17.58
2022-08-22T15:12:25.969Z,15.75
2022-08-22T15:14:56.798Z,12.05
2022-08-22T15:17:51.129Z,13.80
2022-08-22T15:20:38.209Z,13.38
2022-08-22T15:23:19.994Z,13.27
2022-08-22T15:25:58.169Z,13.70
2022-08-22T15:28:25.144Z,12.98
2022-08-22T15:30:54.097Z,13.02
2022-08-22T15:33:33.709Z,12.52
2022-08-22T15:36:35.672Z,10.23
2022-08-22T15:39:30.346Z,13.57
2022-08-22T15:41:58.438Z,14.63
2022-08-22T15:44:40.100Z,13.00
2022-08-22T15:47:28.511Z,12.70
2022-08-22T15:50:05.368Z,10.88
2022-08-22T15:52:35.696Z,11.23
2022-08-22T15:55:16.600Z,12.57
2022-08-22T15:58:21.805Z,10.23
2022-08-22T16:01:19.242Z,12.98
2022-08-22T16:04:00.040Z,11.15
2022-08-22T16:07:02.943Z,8.10
2022-08-22T16:09:50.398Z,9.65
2022-08-22T16:12:47.659Z,10.02
2022-08-22T16:15:56.286Z,10.30
2022-08-22T16:18:43.567Z,12.82
2022-08-22T16:21:23.247Z,10.25
2022-08-22T16:23:49.799Z,7.80
2022-08-22T16:26:31.319Z,7.43
2022-08-22T16:29:03.726Z,7.00
2022-08-22T16:34:18.596Z,7.82
2022-08-22T16:36:45.098Z,8.07
2022-08-22T16:39:21.218Z,9.52
2022-08-22T16:42:15.735Z,9.15
2022-08-22T16:45:05.726Z,9.02
2022-08-22T16:47:40.704Z,6.93
2022-08-22T16:50:16.317Z,7.05
2022-08-22T16:53:13.818Z,9.40
2022-08-22T16:55:43.290Z,7.53
2022-08-22T16:58:57.845Z,6.38
2022-08-22T17:01:56.668Z,6.80
2022-08-22T17:04:56.585Z,7.68
2022-08-22T17:07:54.022Z,7.32
2022-08-22T17:10:58.846Z,8.00
2022-08-22T17:13:56.222Z,7.97
2022-08-22T17:16:49.753Z,5.90
2022-08-22T17:19:25.849Z,6.57
2022-08-22T17:25:14.138Z,8.07
2022-08-22T17:27:44.397Z,5.68
2022-08-22T17:30:20.416Z,7.75
2022-08-22T17:33:11.199Z,7.82
2022-08-22T17:36:00.065Z,6.32
2022-08-22T17:38:35.638Z,5.57
2022-08-22T17:41:26.617Z,6.38
2022-08-22T17:44:11.498Z,6.25
2022-08-22T17:46:48.891Z,6.70
2022-08-22T17:49:28.505Z,6.43
2022-08-22T17:52:32.539Z,6.38
2022-08-22T17:55:12.393Z,6.50
2022-08-22T17:57:51.131Z,7.03
2022-08-22T18:00:26.088Z,5.78
2022-08-22T18:03:00.648Z,5.20
2022-08-22T18:05:31.503Z,5.32
2022-08-22T18:08:38.150Z,5.97
2022-08-22T18:11:19.240Z,4.97
2022-08-22T18:13:56.738Z,5.30
2022-08-22T18:16:41.455Z,5.47
2022-08-22T18:19:51.377Z,5.78
2022-08-22T18:22:36.072Z,4.70
2022-08-22T18:25:17.607Z,3.75
2022-08-22T18:27:51.385Z,6.68
2022-08-22T18:30:28.383Z,6.47
2022-08-22T18:33:10.966Z,4.82
2022-08-22T18:35:54.619Z,5.35
2022-08-22T18:38:23.592Z,4.97
2022-08-22T18:41:03.739Z,4.25
2022-08-22T18:43:41.630Z,5.07
2022-08-22T18:46:38.222Z,4.55
2022-08-22T18:49:33.860Z,5.38
2022-08-22T18:52:09.418Z,3.92
2022-08-22T18:54:57.333Z,3.92
2022-08-22T18:57:38.780Z,5.22
2022-08-22T19:01:04.864Z,4.40
2022-08-22T19:03:37.443Z,6.97
2022-08-22T19:08:55.870Z,6.07
2022-08-22T19:14:13.791Z,4.88
2022-08-22T19:17:07.652Z,4.60
2022-08-22T19:20:11.931Z,5.13
2022-08-22T19:22:39.342Z,5.53
2022-08-22T19:25:26.379Z,5.45
2022-08-22T19:28:14.297Z,4.65
2022-08-22T19:30:48.066Z,4.95
2022-08-22T19:33:29.291Z,4.13
2022-08-22T19:36:29.271Z,4.13
2022-08-22T19:39:02.692Z,4.60
2022-08-22T19:41:52.414Z,6.05
2022-08-22T19:44:18.915Z,4.35
2022-08-22T19:46:59.899Z,3.85
2022-08-22T19:49:34.887Z,3.30
2022-08-22T19:52:16.411Z,4.45
2022-08-22T19:54:50.966Z,3.65
2022-08-22T19:57:54.041Z,5.47
2022-08-22T20:00:55.114Z,4.10
2022-08-22T20:03:44.564Z,4.43
2022-08-22T20:06:43.075Z,4.20
2022-08-22T20:09:32.035Z,4.07
2022-08-22T20:12:05.011Z,3.97
2022-08-22T20:14:37.221Z,4.72
2022-08-22T20:17:24.693Z,4.55
2022-08-22T20:22:52.825Z,3.30
2022-08-22T20:25:41.803Z,4.10
2022-08-22T20:28:29.656Z,2.92
2022-08-22T20:31:00.220Z,3.25
2022-08-22T20:33:32.418Z,3.83
2022-08-22T20:36:01.986Z,3.72
2022-08-22T20:38:39.577Z,4.20
2022-08-22T20:41:20.879Z,3.95
2022-08-22T20:44:00.652Z,4.25
2022-08-22T20:46:46.095Z,3.90
2022-08-22T20:49:31.724Z,3.63
2022-08-22T20:52:08.574Z,3.92
2022-08-22T20:54:38.677Z,3.35
2022-08-22T20:57:17.807Z,3.13
2022-08-22T21:00:06.563Z,2.72
2022-08-22T21:02:42.326Z,2.60
2022-08-22T21:05:11.545Z,3.42
2022-08-22T21:07:42.445Z,2.95
2022-08-22T21:10:40.187Z,3.70
2022-08-22T21:13:11.135Z,2.78
2022-08-22T21:15:41.855Z,3.33
2022-08-22T21:18:11.243Z,2.85
2022-08-22T21:20:38.469Z,2.92
2022-08-22T21:23:12.543Z,3.25
2022-08-22T21:26:00.815Z,4.25
2022-08-22T21:28:41.186Z,3.42
2022-08-22T21:31:12.183Z,3.13
2022-08-22T21:33:47.027Z,3.58
2022-08-22T21:36:16.395Z,3.25
2022-08-22T21:38:59.034Z,2.97
2022-08-22T21:44:18.584Z,2.17
2022-08-22T21:46:45.205Z,3.75
2022-08-22T21:49:29.564Z,3.40
2022-08-22T21:51:56.406Z,3.35
2022-08-22T21:54:26.017Z,3.58
2022-08-22T21:56:55.774Z,1.90
2022-08-22T21:59:59.831Z,2.75
2022-08-22T22:02:39.673Z,4.22
2022-08-22T22:05:17.652Z,3.13
2022-08-22T22:07:46.924Z,2.55
2022-08-22T22:10:16.858Z,3.03
2022-08-22T22:12:45.582Z,1.83
2022-08-22T22:15:18.792Z,3.17
2022-08-22T22:17:45.431Z,2.75
2022-08-22T22:20:15.262Z,2.30
2022-08-22T22:22:46.623Z,3.45
2022-08-22T22:25:39.598Z,3.13
2022-08-22T22:28:09.006Z,2.63
2022-08-22T22:30:35.956Z,3.10
2022-08-22T22:33:02.501Z,2.53
2022-08-22T22:35:29.084Z,2.75
2022-08-22T22:37:56.664Z,2.53
2022-08-22T22:40:24.186Z,3.10
2022-08-22T22:42:51.010Z,2.10
2022-08-22T22:45:17.530Z,1.90
2022-08-22T22:47:44.028Z,2.72
2022-08-22T22:50:10.531Z,2.75
2022-08-22T22:52:38.456Z,2.75
2022-08-22T22:55:08.440Z,2.85
2022-08-22T22:57:41.371Z,2.55
2022-08-22T23:00:11.035Z,2.63
2022-08-22T23:02:37.514Z,2.20
2022-08-22T23:05:04.562Z,3.13
2022-08-22T23:07:33.820Z,2.75
2022-08-22T23:10:01.489Z,2.25
2022-08-22T23:12:28.792Z,2.58
2022-08-22T23:14:55.288Z,2.63
2022-08-22T23:17:21.897Z,2.67
2022-08-22T23:19:50.143Z,2.28
2022-08-22T23:22:16.748Z,2.88
2022-08-22T23:24:43.364Z,2.42
2022-08-22T23:27:10.785Z,2.50
2022-08-22T23:29:40.829Z,3.53
2022-08-22T23:32:08.904Z,2.13
2022-08-22T23:34:40.000Z,2.38
2022-08-22T23:37:07.993Z,2.35
2022-08-22T23:39:35.816Z,2.35
2022-08-22T23:42:02.751Z,2.95
2022-08-22T23:44:32.773Z,2.55
2022-08-22T23:47:00.122Z,3.28
2022-08-22T23:49:28.319Z,3.10
2022-08-22T23:51:55.697Z,2.33
2022-08-22T23:54:22.616Z,1.95
2022-08-22T23:56:55.134Z,2.67
2022-08-22T23:59:30.082Z,2.63
